sensor_id;sensor_type;location;lat;lon;timestamp;temperature;humidity
17399;DHT22;8817;48.170;8.592;2023-03-01T00:00:06;4.20;44.60
17399;DHT22;8817;48.170;8.592;2023-03-01T00:02:33;4.30;44.70
17399;DHT22;8817;48.170;8.592;2023-03-01T00:05:00;4.20;44.60
17399;DHT22;8817;48.170;8.592;2023-03-01T00:07:28;4.20;44.90
17399;DHT22;8817;48.170;8.592;2023-03-01T00:09:55;4.20;44.60
17399;DHT22;8817;48.170;8.592;2023-03-01T00:12:23;4.20;44.60
17399;DHT22;8817;48.170;8.592;2023-03-01T00:14:50;4.20;44.60
17399;DHT22;8817;48.170;8.592;2023-03-01T00:17:17;4.20;44.60
17399;DHT22;8817;48.170;8.592;2023-03-01T00:19:44;4.20;44.60
17399;DHT22;8817;48.170;8.592;2023-03-01T00:22:11;4.10;44.60
17399;DHT22;8817;48.170;8.592;2023-03-01T00:24:38;4.20;44.60
17399;DHT22;8817;48.170;8.592;2023-03-01T00:27:05;4.10;44.60
17399;DHT22;8817;48.170;8.592;2023-03-01T00:29:34;4.20;44.60
17399;DHT22;8817;48.170;8.592;2023-03-01T00:32:01;4.20;44.60
17399;DHT22;8817;48.170;8.592;2023-03-01T00:34:28;4.10;44.60
17399;DHT22;8817;48.170;8.592;2023-03-01T00:36:55;4.10;44.60
17399;DHT22;8817;48.170;8.592;2023-03-01T00:39:31;4.10;44.60
17399;DHT22;8817;48.170;8.592;2023-03-01T00:42:00;4.10;44.60
17399;DHT22;8817;48.170;8.592;2023-03-01T00:44:27;4.10;44.60
17399;DHT22;8817;48.170;8.592;2023-03-01T00:46:55;4.10;45.10
17399;DHT22;8817;48.170;8.592;2023-03-01T00:49:22;4.00;44.50
17399;DHT22;8817;48.170;8.592;2023-03-01T00:51:53;4.00;44.50
17399;DHT22;8817;48.170;8.592;2023-03-01T00:54:20;4.00;44.50
17399;DHT22;8817;48.170;8.592;2023-03-01T00:56:47;4.00;45.10
17399;DHT22;8817;48.170;8.592;2023-03-01T00:59:14;4.00;44.60
17399;DHT22;8817;48.170;8.592;2023-03-01T01:01:41;3.90;44.50
17399;DHT22;8817;48.170;8.592;2023-03-01T01:04:11;4.00;44.60
17399;DHT22;8817;48.170;8.592;2023-03-01T01:06:40;3.90;44.50
17399;DHT22;8817;48.170;8.592;2023-03-01T01:09:10;3.90;44.50
17399;DHT22;8817;48.170;8.592;2023-03-01T01:11:42;3.90;44.50
17399;DHT22;8817;48.170;8.592;2023-03-01T01:14:10;3.90;44.50
17399;DHT22;8817;48.170;8.592;2023-03-01T01:16:37;3.90;44.60
17399;DHT22;8817;48.170;8.592;2023-03-01T01:19:03;3.90;44.60
17399;DHT22;8817;48.170;8.592;2023-03-01T01:21:32;3.90;44.60
17399;DHT22;8817;48.170;8.592;2023-03-01T01:23:59;3.90;44.60
17399;DHT22;8817;48.170;8.592;2023-03-01T01:26:28;3.90;44.60
17399;DHT22;8817;48.170;8.592;2023-03-01T01:28:55;3.90;44.60
17399;DHT22;8817;48.170;8.592;2023-03-01T01:31:23;3.90;44.60
17399;DHT22;8817;48.170;8.592;2023-03-01T01:33:50;3.90;44.60
17399;DHT22;8817;48.170;8.592;2023-03-01T01:36:17;3.90;44.70
17399;DHT22;8817;48.170;8.592;2023-03-01T01:38:46;3.90;44.70
17399;DHT22;8817;48.170;8.592;2023-03-01T01:41:13;3.90;44.70
17399;DHT22;8817;48.170;8.592;2023-03-01T01:43:42;3.90;44.70
17399;DHT22;8817;48.170;8.592;2023-03-01T01:46:16;3.90;45.30
17399;DHT22;8817;48.170;8.592;2023-03-01T01:48:47;3.90;44.70
17399;DHT22;8817;48.170;8.592;2023-03-01T01:51:19;3.90;44.70
17399;DHT22;8817;48.170;8.592;2023-03-01T01:53:52;3.90;44.70
17399;DHT22;8817;48.170;8.592;2023-03-01T01:56:21;3.90;44.70
17399;DHT22;8817;48.170;8.592;2023-03-01T01:58:50;3.90;44.70
17399;DHT22;8817;48.170;8.592;2023-03-01T02:01:18;4.00;44.80
17399;DHT22;8817;48.170;8.592;2023-03-01T02:03:46;4.00;44.70
17399;DHT22;8817;48.170;8.592;2023-03-01T02:06:19;3.90;44.70
17399;DHT22;8817;48.170;8.592;2023-03-01T02:08:50;3.90;44.70
17399;DHT22;8817;48.170;8.592;2023-03-01T02:11:19;4.00;44.80
17399;DHT22;8817;48.170;8.592;2023-03-01T02:13:48;4.00;44.80
17399;DHT22;8817;48.170;8.592;2023-03-01T02:16:16;4.00;44.80
17399;DHT22;8817;48.170;8.592;2023-03-01T02:18:44;4.00;44.80
17399;DHT22;8817;48.170;8.592;2023-03-01T02:21:21;4.00;44.80
17399;DHT22;8817;48.170;8.592;2023-03-01T02:23:53;4.00;44.80
17399;DHT22;8817;48.170;8.592;2023-03-01T02:26:27;4.00;44.80
17399;DHT22;8817;48.170;8.592;2023-03-01T02:28:58;4.00;44.80
17399;DHT22;8817;48.170;8.592;2023-03-01T02:31:25;4.00;44.80
17399;DHT22;8817;48.170;8.592;2023-03-01T02:34:13;4.00;44.80
17399;DHT22;8817;48.170;8.592;2023-03-01T02:36:43;4.00;44.90
17399;DHT22;8817;48.170;8.592;2023-03-01T02:39:14;4.00;44.90
17399;DHT22;8817;48.170;8.592;2023-03-01T02:41:47;4.10;44.90
17399;DHT22;8817;48.170;8.592;2023-03-01T02:44:16;4.00;44.90
17399;DHT22;8817;48.170;8.592;2023-03-01T02:46:44;4.00;44.90
17399;DHT22;8817;48.170;8.592;2023-03-01T02:49:23;4.10;44.90
17399;DHT22;8817;48.170;8.592;2023-03-01T02:52:06;4.10;44.90
17399;DHT22;8817;48.170;8.592;2023-03-01T02:54:40;4.10;44.90
17399;DHT22;8817;48.170;8.592;2023-03-01T02:57:07;4.10;44.90
17399;DHT22;8817;48.170;8.592;2023-03-01T02:59:37;4.10;44.90
17399;DHT22;8817;48.170;8.592;2023-03-01T03:02:06;4.10;44.90
17399;DHT22;8817;48.170;8.592;2023-03-01T03:04:33;4.10;44.90
17399;DHT22;8817;48.170;8.592;2023-03-01T03:07:00;4.20;44.90
17399;DHT22;8817;48.170;8.592;2023-03-01T03:09:27;4.20;44.90
17399;DHT22;8817;48.170;8.592;2023-03-01T03:11:55;4.10;44.90
17399;DHT22;8817;48.170;8.592;2023-03-01T03:14:22;4.20;44.90
17399;DHT22;8817;48.170;8.592;2023-03-01T03:16:50;4.10;44.90
17399;DHT22;8817;48.170;8.592;2023-03-01T03:19:18;4.10;44.90
17399;DHT22;8817;48.170;8.592;2023-03-01T03:21:45;4.10;44.90
17399;DHT22;8817;48.170;8.592;2023-03-01T03:24:12;4.20;45.00
17399;DHT22;8817;48.170;8.592;2023-03-01T03:26:39;4.20;44.90
17399;DHT22;8817;48.170;8.592;2023-03-01T03:29:06;4.20;44.90
17399;DHT22;8817;48.170;8.592;2023-03-01T03:31:33;4.20;44.90
17399;DHT22;8817;48.170;8.592;2023-03-01T03:34:02;4.20;45.00
17399;DHT22;8817;48.170;8.592;2023-03-01T03:36:29;4.10;44.90
17399;DHT22;8817;48.170;8.592;2023-03-01T03:38:56;4.20;45.00
17399;DHT22;8817;48.170;8.592;2023-03-01T03:41:23;4.20;44.90
17399;DHT22;8817;48.170;8.592;2023-03-01T03:43:50;4.20;44.90
17399;DHT22;8817;48.170;8.592;2023-03-01T03:46:17;4.20;44.90
17399;DHT22;8817;48.170;8.592;2023-03-01T03:48:45;4.20;45.00
17399;DHT22;8817;48.170;8.592;2023-03-01T03:51:15;4.20;45.00
17399;DHT22;8817;48.170;8.592;2023-03-01T03:53:43;4.20;45.00
17399;DHT22;8817;48.170;8.592;2023-03-01T03:56:11;4.20;44.90
17399;DHT22;8817;48.170;8.592;2023-03-01T03:58:38;4.20;45.00
17399;DHT22;8817;48.170;8.592;2023-03-01T04:01:05;4.10;44.90
17399;DHT22;8817;48.170;8.592;2023-03-01T04:03:33;4.10;44.90
17399;DHT22;8817;48.170;8.592;2023-03-01T04:06:01;4.20;45.00
17399;DHT22;8817;48.170;8.592;2023-03-01T04:08:29;4.20;45.00
17399;DHT22;8817;48.170;8.592;2023-03-01T04:11:01;4.20;45.00
17399;DHT22;8817;48.170;8.592;2023-03-01T04:13:49;4.10;45.00
17399;DHT22;8817;48.170;8.592;2023-03-01T04:16:16;4.10;44.90
17399;DHT22;8817;48.170;8.592;2023-03-01T04:18:44;4.10;45.00
17399;DHT22;8817;48.170;8.592;2023-03-01T04:21:11;4.10;45.00
17399;DHT22;8817;48.170;8.592;2023-03-01T04:23:40;4.20;45.10
17399;DHT22;8817;48.170;8.592;2023-03-01T04:26:07;4.20;45.10
17399;DHT22;8817;48.170;8.592;2023-03-01T04:28:36;4.20;45.10
17399;DHT22;8817;48.170;8.592;2023-03-01T04:31:07;4.20;45.10
17399;DHT22;8817;48.170;8.592;2023-03-01T04:33:39;4.20;45.10
17399;DHT22;8817;48.170;8.592;2023-03-01T04:38:35;4.20;45.10
17399;DHT22;8817;48.170;8.592;2023-03-01T04:41:04;4.20;45.00
17399;DHT22;8817;48.170;8.592;2023-03-01T04:43:32;4.20;45.00
17399;DHT22;8817;48.170;8.592;2023-03-01T04:46:03;4.20;45.00
17399;DHT22;8817;48.170;8.592;2023-03-01T04:48:30;4.20;45.10
17399;DHT22;8817;48.170;8.592;2023-03-01T04:50:58;4.20;45.00
17399;DHT22;8817;48.170;8.592;2023-03-01T04:53:26;4.20;45.10
17399;DHT22;8817;48.170;8.592;2023-03-01T04:55:54;4.20;45.10
17399;DHT22;8817;48.170;8.592;2023-03-01T04:58:23;4.20;45.10
17399;DHT22;8817;48.170;8.592;2023-03-01T05:00:51;4.20;45.10
17399;DHT22;8817;48.170;8.592;2023-03-01T05:03:18;4.20;45.10
17399;DHT22;8817;48.170;8.592;2023-03-01T05:05:46;4.20;45.10
17399;DHT22;8817;48.170;8.592;2023-03-01T05:08:14;4.20;45.10
17399;DHT22;8817;48.170;8.592;2023-03-01T05:10:45;4.20;45.10
17399;DHT22;8817;48.170;8.592;2023-03-01T05:13:13;4.20;45.10
17399;DHT22;8817;48.170;8.592;2023-03-01T05:15:48;4.20;45.10
17399;DHT22;8817;48.170;8.592;2023-03-01T05:18:15;4.20;45.10
17399;DHT22;8817;48.170;8.592;2023-03-01T05:20:42;4.20;45.10
17399;DHT22;8817;48.170;8.592;2023-03-01T05:23:10;4.20;45.10
17399;DHT22;8817;48.170;8.592;2023-03-01T05:25:37;4.20;45.10
17399;DHT22;8817;48.170;8.592;2023-03-01T05:28:06;4.20;45.20
17399;DHT22;8817;48.170;8.592;2023-03-01T05:30:35;4.30;45.20
17399;DHT22;8817;48.170;8.592;2023-03-01T05:33:05;4.20;45.10
17399;DHT22;8817;48.170;8.592;2023-03-01T05:35:39;4.20;45.10
17399;DHT22;8817;48.170;8.592;2023-03-01T05:38:06;4.20;45.10
17399;DHT22;8817;48.170;8.592;2023-03-01T05:40:33;4.20;45.20
17399;DHT22;8817;48.170;8.592;2023-03-01T05:43:00;4.20;45.10
17399;DHT22;8817;48.170;8.592;2023-03-01T05:45:31;4.20;45.10
17399;DHT22;8817;48.170;8.592;2023-03-01T05:47:59;4.20;45.20
17399;DHT22;8817;48.170;8.592;2023-03-01T05:50:29;4.20;45.10
17399;DHT22;8817;48.170;8.592;2023-03-01T05:53:00;4.20;45.10
17399;DHT22;8817;48.170;8.592;2023-03-01T05:55:29;4.30;45.20
17399;DHT22;8817;48.170;8.592;2023-03-01T05:57:58;4.20;45.20
17399;DHT22;8817;48.170;8.592;2023-03-01T06:00:25;4.20;45.70
17399;DHT22;8817;48.170;8.592;2023-03-01T06:02:53;4.20;45.10
17399;DHT22;8817;48.170;8.592;2023-03-01T06:05:20;4.20;45.10
17399;DHT22;8817;48.170;8.592;2023-03-01T06:07:49;4.20;45.10
17399;DHT22;8817;48.170;8.592;2023-03-01T06:10:17;4.20;45.10
17399;DHT22;8817;48.170;8.592;2023-03-01T06:12:45;4.20;45.10
17399;DHT22;8817;48.170;8.592;2023-03-01T06:15:14;4.20;45.20
17399;DHT22;8817;48.170;8.592;2023-03-01T06:17:42;4.10;45.10
17399;DHT22;8817;48.170;8.592;2023-03-01T06:20:11;4.10;45.10
17399;DHT22;8817;48.170;8.592;2023-03-01T06:22:41;4.10;45.10
17399;DHT22;8817;48.170;8.592;2023-03-01T06:25:10;4.10;45.10
17399;DHT22;8817;48.170;8.592;2023-03-01T06:27:38;4.10;45.10
17399;DHT22;8817;48.170;8.592;2023-03-01T06:30:06;4.10;45.10
17399;DHT22;8817;48.170;8.592;2023-03-01T06:32:35;4.10;45.20
17399;DHT22;8817;48.170;8.592;2023-03-01T06:35:03;4.10;45.10
17399;DHT22;8817;48.170;8.592;2023-03-01T06:37:30;4.10;45.20
17399;DHT22;8817;48.170;8.592;2023-03-01T06:39:57;4.10;45.20
17399;DHT22;8817;48.170;8.592;2023-03-01T06:42:25;4.10;45.20
17399;DHT22;8817;48.170;8.592;2023-03-01T06:44:52;4.00;45.20
17399;DHT22;8817;48.170;8.592;2023-03-01T06:47:19;4.00;45.20
17399;DHT22;8817;48.170;8.592;2023-03-01T06:49:46;4.00;45.20
17399;DHT22;8817;48.170;8.592;2023-03-01T06:52:13;4.00;45.20
17399;DHT22;8817;48.170;8.592;2023-03-01T06:54:40;4.00;45.20
17399;DHT22;8817;48.170;8.592;2023-03-01T06:57:07;4.00;45.20
17399;DHT22;8817;48.170;8.592;2023-03-01T06:59:35;4.00;45.80
17399;DHT22;8817;48.170;8.592;2023-03-01T07:02:02;4.00;45.30
17399;DHT22;8817;48.170;8.592;2023-03-01T07:04:29;4.00;45.30
17399;DHT22;8817;48.170;8.592;2023-03-01T07:06:56;4.10;45.30
17399;DHT22;8817;48.170;8.592;2023-03-01T07:09:24;4.00;45.30
17399;DHT22;8817;48.170;8.592;2023-03-01T07:11:51;4.10;45.30
17399;DHT22;8817;48.170;8.592;2023-03-01T07:14:18;4.10;45.30
17399;DHT22;8817;48.170;8.592;2023-03-01T07:16:47;4.10;45.30
17399;DHT22;8817;48.170;8.592;2023-03-01T07:19:14;4.10;45.30
17399;DHT22;8817;48.170;8.592;2023-03-01T07:21:41;4.10;45.40
17399;DHT22;8817;48.170;8.592;2023-03-01T07:24:10;4.20;45.40
17399;DHT22;8817;48.170;8.592;2023-03-01T07:26:37;4.20;45.50
17399;DHT22;8817;48.170;8.592;2023-03-01T07:29:05;4.20;45.40
17399;DHT22;8817;48.170;8.592;2023-03-01T07:31:33;4.20;45.40
17399;DHT22;8817;48.170;8.592;2023-03-01T07:34:03;4.20;45.40
17399;DHT22;8817;48.170;8.592;2023-03-01T07:36:29;4.20;45.40
17399;DHT22;8817;48.170;8.592;2023-03-01T07:38:56;4.20;45.40
17399;DHT22;8817;48.170;8.592;2023-03-01T07:41:24;4.20;45.40
17399;DHT22;8817;48.170;8.592;2023-03-01T07:43:51;4.30;45.50
17399;DHT22;8817;48.170;8.592;2023-03-01T07:46:18;4.20;45.40
17399;DHT22;8817;48.170;8.592;2023-03-01T07:48:45;4.20;45.50
17399;DHT22;8817;48.170;8.592;2023-03-01T07:51:14;4.30;45.50
17399;DHT22;8817;48.170;8.592;2023-03-01T07:53:41;4.30;45.60
17399;DHT22;8817;48.170;8.592;2023-03-01T07:56:10;4.30;45.60
17399;DHT22;8817;48.170;8.592;2023-03-01T07:58:38;4.30;45.60
17399;DHT22;8817;48.170;8.592;2023-03-01T08:01:07;4.30;45.60
17399;DHT22;8817;48.170;8.592;2023-03-01T08:03:35;4.30;45.60
17399;DHT22;8817;48.170;8.592;2023-03-01T08:06:03;4.40;45.60
17399;DHT22;8817;48.170;8.592;2023-03-01T08:08:32;4.40;45.60
17399;DHT22;8817;48.170;8.592;2023-03-01T08:11:00;4.40;45.60
17399;DHT22;8817;48.170;8.592;2023-03-01T08:13:28;4.40;45.60
17399;DHT22;8817;48.170;8.592;2023-03-01T08:16:01;4.40;45.60
17399;DHT22;8817;48.170;8.592;2023-03-01T08:18:28;4.40;45.60
17399;DHT22;8817;48.170;8.592;2023-03-01T08:20:55;4.50;45.70
17399;DHT22;8817;48.170;8.592;2023-03-01T08:23:22;4.50;45.70
17399;DHT22;8817;48.170;8.592;2023-03-01T08:25:50;4.50;45.70
17399;DHT22;8817;48.170;8.592;2023-03-01T08:28:18;4.50;45.70
17399;DHT22;8817;48.170;8.592;2023-03-01T08:30:45;4.50;45.70
17399;DHT22;8817;48.170;8.592;2023-03-01T08:33:12;4.60;45.80
17399;DHT22;8817;48.170;8.592;2023-03-01T08:35:39;4.60;45.80
17399;DHT22;8817;48.170;8.592;2023-03-01T08:38:06;4.60;45.80
17399;DHT22;8817;48.170;8.592;2023-03-01T08:40:33;4.60;45.70
17399;DHT22;8817;48.170;8.592;2023-03-01T08:43:01;4.60;45.70
17399;DHT22;8817;48.170;8.592;2023-03-01T08:45:28;4.70;45.80
17399;DHT22;8817;48.170;8.592;2023-03-01T08:47:55;4.70;45.80
17399;DHT22;8817;48.170;8.592;2023-03-01T08:50:23;4.70;45.80
17399;DHT22;8817;48.170;8.592;2023-03-01T08:52:51;4.70;45.80
17399;DHT22;8817;48.170;8.592;2023-03-01T08:55:18;4.70;45.80
17399;DHT22;8817;48.170;8.592;2023-03-01T08:57:44;4.80;45.90
17399;DHT22;8817;48.170;8.592;2023-03-01T09:00:13;4.80;46.50
17399;DHT22;8817;48.170;8.592;2023-03-01T09:02:42;4.80;45.90
17399;DHT22;8817;48.170;8.592;2023-03-01T09:05:09;4.80;45.90
17399;DHT22;8817;48.170;8.592;2023-03-01T09:07:36;4.90;46.00
17399;DHT22;8817;48.170;8.592;2023-03-01T09:10:04;4.90;46.00
17399;DHT22;8817;48.170;8.592;2023-03-01T09:12:31;4.90;46.00
17399;DHT22;8817;48.170;8.592;2023-03-01T09:14:58;5.00;46.00
17399;DHT22;8817;48.170;8.592;2023-03-01T09:17:26;5.00;46.00
17399;DHT22;8817;48.170;8.592;2023-03-01T09:19:53;5.00;46.10
17399;DHT22;8817;48.170;8.592;2023-03-01T09:22:20;5.10;46.10
17399;DHT22;8817;48.170;8.592;2023-03-01T09:24:47;5.10;46.10
17399;DHT22;8817;48.170;8.592;2023-03-01T09:27:14;5.20;46.10
17399;DHT22;8817;48.170;8.592;2023-03-01T09:29:44;5.20;46.20
17399;DHT22;8817;48.170;8.592;2023-03-01T09:32:11;5.20;46.20
17399;DHT22;8817;48.170;8.592;2023-03-01T09:34:39;5.20;46.10
17399;DHT22;8817;48.170;8.592;2023-03-01T09:37:20;5.30;46.10
17399;DHT22;8817;48.170;8.592;2023-03-01T09:39:47;5.30;46.10
17399;DHT22;8817;48.170;8.592;2023-03-01T09:42:14;5.40;46.20
17399;DHT22;8817;48.170;8.592;2023-03-01T09:44:46;5.40;46.20
17399;DHT22;8817;48.170;8.592;2023-03-01T09:47:18;5.40;46.30
17399;DHT22;8817;48.170;8.592;2023-03-01T09:49:56;5.40;46.20
17399;DHT22;8817;48.170;8.592;2023-03-01T09:52:32;5.40;46.70
17399;DHT22;8817;48.170;8.592;2023-03-01T09:55:00;5.50;46.20
17399;DHT22;8817;48.170;8.592;2023-03-01T09:57:33;5.60;46.30
17399;DHT22;8817;48.170;8.592;2023-03-01T10:00:21;5.60;46.30
17399;DHT22;8817;48.170;8.592;2023-03-01T10:02:51;5.60;46.30
17399;DHT22;8817;48.170;8.592;2023-03-01T10:05:39;5.70;46.40
17399;DHT22;8817;48.170;8.592;2023-03-01T10:08:27;5.70;46.40
17399;DHT22;8817;48.170;8.592;2023-03-01T10:10:57;5.70;46.40
17399;DHT22;8817;48.170;8.592;2023-03-01T10:13:29;5.80;46.40
17399;DHT22;8817;48.170;8.592;2023-03-01T10:16:04;5.80;46.50
17399;DHT22;8817;48.170;8.592;2023-03-01T10:18:33;5.90;46.60
17399;DHT22;8817;48.170;8.592;2023-03-01T10:21:12;5.90;46.60
17399;DHT22;8817;48.170;8.592;2023-03-01T10:23:40;6.00;46.60
17399;DHT22;8817;48.170;8.592;2023-03-01T10:26:16;6.10;46.70
17399;DHT22;8817;48.170;8.592;2023-03-01T10:28:52;6.10;46.60
17399;DHT22;8817;48.170;8.592;2023-03-01T10:31:27;6.10;46.60
17399;DHT22;8817;48.170;8.592;2023-03-01T10:34:04;6.20;46.60
17399;DHT22;8817;48.170;8.592;2023-03-01T10:36:33;6.20;46.50
17399;DHT22;8817;48.170;8.592;2023-03-01T10:39:10;6.30;46.70
17399;DHT22;8817;48.170;8.592;2023-03-01T10:41:52;6.30;46.70
17399;DHT22;8817;48.170;8.592;2023-03-01T10:44:36;6.40;46.70
17399;DHT22;8817;48.170;8.592;2023-03-01T10:47:03;6.40;46.70
17399;DHT22;8817;48.170;8.592;2023-03-01T10:49:31;6.50;46.80
17399;DHT22;8817;48.170;8.592;2023-03-01T10:52:16;6.60;46.80
17399;DHT22;8817;48.170;8.592;2023-03-01T10:54:51;6.60;46.80
17399;DHT22;8817;48.170;8.592;2023-03-01T10:57:29;6.60;46.80
17399;DHT22;8817;48.170;8.592;2023-03-01T11:00:19;6.70;46.80
17399;DHT22;8817;48.170;8.592;2023-03-01T11:02:49;6.80;46.80
17399;DHT22;8817;48.170;8.592;2023-03-01T11:05:21;6.90;47.10
17399;DHT22;8817;48.170;8.592;2023-03-01T11:07:52;6.90;46.90
17399;DHT22;8817;48.170;8.592;2023-03-01T11:10:22;7.00;47.00
17399;DHT22;8817;48.170;8.592;2023-03-01T11:12:51;7.10;47.20
17399;DHT22;8817;48.170;8.592;2023-03-01T11:15:25;7.10;47.30
17399;DHT22;8817;48.170;8.592;2023-03-01T11:17:53;7.20;47.20
17399;DHT22;8817;48.170;8.592;2023-03-01T11:20:27;7.30;47.20
17399;DHT22;8817;48.170;8.592;2023-03-01T11:22:59;7.40;47.20
17399;DHT22;8817;48.170;8.592;2023-03-01T11:25:31;7.40;47.10
17399;DHT22;8817;48.170;8.592;2023-03-01T11:28:02;7.50;47.10
17399;DHT22;8817;48.170;8.592;2023-03-01T11:30:34;7.60;47.20
17399;DHT22;8817;48.170;8.592;2023-03-01T11:33:13;7.70;47.40
17399;DHT22;8817;48.170;8.592;2023-03-01T11:35:45;7.80;47.50
17399;DHT22;8817;48.170;8.592;2023-03-01T11:38:21;7.90;47.70
17399;DHT22;8817;48.170;8.592;2023-03-01T11:40:54;8.00;47.80
17399;DHT22;8817;48.170;8.592;2023-03-01T11:43:30;8.20;47.90
17399;DHT22;8817;48.170;8.592;2023-03-01T11:52:11;8.60;48.00
17399;DHT22;8817;48.170;8.592;2023-03-01T11:54:52;8.80;48.00
17399;DHT22;8817;48.170;8.592;2023-03-01T11:57:36;8.90;48.60
17399;DHT22;8817;48.170;8.592;2023-03-01T12:00:37;9.10;48.00
17399;DHT22;8817;48.170;8.592;2023-03-01T12:03:26;9.20;48.00
17399;DHT22;8817;48.170;8.592;2023-03-01T12:06:26;9.40;48.00
17399;DHT22;8817;48.170;8.592;2023-03-01T12:09:07;9.50;48.00
17399;DHT22;8817;48.170;8.592;2023-03-01T12:11:51;9.60;48.00
17399;DHT22;8817;48.170;8.592;2023-03-01T12:14:47;9.70;47.90
17399;DHT22;8817;48.170;8.592;2023-03-01T12:20:23;10.00;48.00
17399;DHT22;8817;48.170;8.592;2023-03-01T12:23:10;10.10;47.90
17399;DHT22;8817;48.170;8.592;2023-03-01T12:25:41;10.20;47.80
17399;DHT22;8817;48.170;8.592;2023-03-01T12:28:31;10.30;47.80
17399;DHT22;8817;48.170;8.592;2023-03-01T12:31:11;10.40;47.80
17399;DHT22;8817;48.170;8.592;2023-03-01T12:33:50;10.50;47.90
17399;DHT22;8817;48.170;8.592;2023-03-01T12:36:32;10.60;48.00
17399;DHT22;8817;48.170;8.592;2023-03-01T12:39:14;10.70;48.00
17399;DHT22;8817;48.170;8.592;2023-03-01T12:41:48;10.80;48.00
17399;DHT22;8817;48.170;8.592;2023-03-01T12:44:33;10.90;48.10
17399;DHT22;8817;48.170;8.592;2023-03-01T12:47:12;11.00;48.00
17399;DHT22;8817;48.170;8.592;2023-03-01T12:49:44;11.10;47.90
17399;DHT22;8817;48.170;8.592;2023-03-01T12:52:17;11.20;47.90
17399;DHT22;8817;48.170;8.592;2023-03-01T12:54:46;11.30;47.70
17399;DHT22;8817;48.170;8.592;2023-03-01T12:57:17;11.30;47.70
17399;DHT22;8817;48.170;8.592;2023-03-01T13:00:05;11.40;47.80
17399;DHT22;8817;48.170;8.592;2023-03-01T13:02:41;11.40;47.80
17399;DHT22;8817;48.170;8.592;2023-03-01T13:05:29;11.50;47.70
17399;DHT22;8817;48.170;8.592;2023-03-01T13:08:05;11.60;47.70
17399;DHT22;8817;48.170;8.592;2023-03-01T13:10:40;11.60;47.60
17399;DHT22;8817;48.170;8.592;2023-03-01T13:13:18;11.60;47.40
17399;DHT22;8817;48.170;8.592;2023-03-01T13:15:47;11.70;47.50
17399;DHT22;8817;48.170;8.592;2023-03-01T13:18:31;11.80;47.60
17399;DHT22;8817;48.170;8.592;2023-03-01T13:21:00;11.80;47.60
17399;DHT22;8817;48.170;8.592;2023-03-01T13:23:30;11.90;47.70
17399;DHT22;8817;48.170;8.592;2023-03-01T13:26:07;11.90;47.70
17399;DHT22;8817;48.170;8.592;2023-03-01T13:28:40;12.00;47.60
17399;DHT22;8817;48.170;8.592;2023-03-01T13:31:10;12.10;47.60
17399;DHT22;8817;48.170;8.592;2023-03-01T13:33:42;12.10;47.60
17399;DHT22;8817;48.170;8.592;2023-03-01T13:36:10;12.20;47.60
17399;DHT22;8817;48.170;8.592;2023-03-01T13:38:54;12.20;47.60
17399;DHT22;8817;48.170;8.592;2023-03-01T13:41:50;12.30;48.00
17399;DHT22;8817;48.170;8.592;2023-03-01T13:44:24;12.30;47.30
17399;DHT22;8817;48.170;8.592;2023-03-01T13:46:56;12.30;47.30
17399;DHT22;8817;48.170;8.592;2023-03-01T13:49:26;12.40;47.30
17399;DHT22;8817;48.170;8.592;2023-03-01T13:51:54;12.40;47.10
17399;DHT22;8817;48.170;8.592;2023-03-01T13:54:26;12.40;47.00
17399;DHT22;8817;48.170;8.592;2023-03-01T13:56:55;12.30;46.90
17399;DHT22;8817;48.170;8.592;2023-03-01T13:59:23;12.30;47.00
17399;DHT22;8817;48.170;8.592;2023-03-01T14:01:57;12.40;47.10
17399;DHT22;8817;48.170;8.592;2023-03-01T14:04:26;12.40;47.10
17399;DHT22;8817;48.170;8.592;2023-03-01T14:07:09;12.40;47.20
17399;DHT22;8817;48.170;8.592;2023-03-01T14:09:40;12.40;47.40
17399;DHT22;8817;48.170;8.592;2023-03-01T14:12:26;12.50;47.50
17399;DHT22;8817;48.170;8.592;2023-03-01T14:15:01;12.60;47.70
17399;DHT22;8817;48.170;8.592;2023-03-01T14:17:52;12.80;47.90
17399;DHT22;8817;48.170;8.592;2023-03-01T14:20:21;12.90;48.60
17399;DHT22;8817;48.170;8.592;2023-03-01T14:22:50;13.10;48.30
17399;DHT22;8817;48.170;8.592;2023-03-01T14:25:24;13.20;48.30
17399;DHT22;8817;48.170;8.592;2023-03-01T14:27:57;13.40;48.30
17399;DHT22;8817;48.170;8.592;2023-03-01T14:30:26;13.50;48.30
17399;DHT22;8817;48.170;8.592;2023-03-01T14:32:57;13.70;48.30
17399;DHT22;8817;48.170;8.592;2023-03-01T14:35:26;13.80;48.30
17399;DHT22;8817;48.170;8.592;2023-03-01T14:37:53;14.00;48.20
17399;DHT22;8817;48.170;8.592;2023-03-01T14:40:26;14.10;48.00
17399;DHT22;8817;48.170;8.592;2023-03-01T14:42:56;14.20;48.00
17399;DHT22;8817;48.170;8.592;2023-03-01T14:45:25;14.30;48.20
17399;DHT22;8817;48.170;8.592;2023-03-01T14:47:53;14.40;48.30
17399;DHT22;8817;48.170;8.592;2023-03-01T14:50:25;14.60;48.40
17399;DHT22;8817;48.170;8.592;2023-03-01T14:52:55;14.70;48.40
17399;DHT22;8817;48.170;8.592;2023-03-01T14:55:26;14.80;48.40
17399;DHT22;8817;48.170;8.592;2023-03-01T14:57:54;15.00;48.30
17399;DHT22;8817;48.170;8.592;2023-03-01T15:00:23;15.10;48.20
17399;DHT22;8817;48.170;8.592;2023-03-01T15:02:52;15.20;48.00
17399;DHT22;8817;48.170;8.592;2023-03-01T15:05:27;15.40;48.10
17399;DHT22;8817;48.170;8.592;2023-03-01T15:07:57;15.50;48.10
17399;DHT22;8817;48.170;8.592;2023-03-01T15:10:28;15.60;48.00
17399;DHT22;8817;48.170;8.592;2023-03-01T15:12:55;15.70;47.80
17399;DHT22;8817;48.170;8.592;2023-03-01T15:15:35;15.80;47.70
17399;DHT22;8817;48.170;8.592;2023-03-01T15:18:05;15.80;47.60
17399;DHT22;8817;48.170;8.592;2023-03-01T15:20:39;16.00;47.70
17399;DHT22;8817;48.170;8.592;2023-03-01T15:23:21;16.10;47.70
17399;DHT22;8817;48.170;8.592;2023-03-01T15:25:49;16.10;47.50
17399;DHT22;8817;48.170;8.592;2023-03-01T15:28:23;16.30;47.60
17399;DHT22;8817;48.170;8.592;2023-03-01T15:30:54;16.40;47.60
17399;DHT22;8817;48.170;8.592;2023-03-01T15:33:35;16.50;47.50
17399;DHT22;8817;48.170;8.592;2023-03-01T15:36:37;16.60;47.40
17399;DHT22;8817;48.170;8.592;2023-03-01T15:39:22;16.70;47.20
17399;DHT22;8817;48.170;8.592;2023-03-01T15:41:52;16.80;47.20
17399;DHT22;8817;48.170;8.592;2023-03-01T15:44:26;16.90;47.10
17399;DHT22;8817;48.170;8.592;2023-03-01T15:46:53;16.90;46.90
17399;DHT22;8817;48.170;8.592;2023-03-01T15:49:29;17.00;46.90
17399;DHT22;8817;48.170;8.592;2023-03-01T15:51:59;17.10;46.70
17399;DHT22;8817;48.170;8.592;2023-03-01T15:54:26;17.20;46.60
17399;DHT22;8817;48.170;8.592;2023-03-01T15:56:54;17.20;46.30
17399;DHT22;8817;48.170;8.592;2023-03-01T15:59:21;17.20;46.10
17399;DHT22;8817;48.170;8.592;2023-03-01T16:01:48;17.20;45.90
17399;DHT22;8817;48.170;8.592;2023-03-01T16:04:18;17.20;45.80
17399;DHT22;8817;48.170;8.592;2023-03-01T16:06:49;17.20;45.60
17399;DHT22;8817;48.170;8.592;2023-03-01T16:09:21;17.20;45.60
17399;DHT22;8817;48.170;8.592;2023-03-01T16:11:49;17.10;45.40
17399;DHT22;8817;48.170;8.592;2023-03-01T16:14:16;17.10;45.30
17399;DHT22;8817;48.170;8.592;2023-03-01T16:16:43;17.10;45.10
17399;DHT22;8817;48.170;8.592;2023-03-01T16:19:10;17.00;44.90
17399;DHT22;8817;48.170;8.592;2023-03-01T16:21:37;16.90;44.50
17399;DHT22;8817;48.170;8.592;2023-03-01T16:24:05;16.70;44.20
17399;DHT22;8817;48.170;8.592;2023-03-01T16:26:34;16.50;44.00
17399;DHT22;8817;48.170;8.592;2023-03-01T16:29:01;16.30;43.80
17399;DHT22;8817;48.170;8.592;2023-03-01T16:31:28;16.00;43.60